^^
Your Local Weather - Clay, NY Station Historical Data
Daily Summary for November 19, 2017 Units:  English    Metric   Both
« Previous Day
Next Day »
Daily Weekly Monthly Yearly Custom
  High: Low: Average:
Temperature: 50.2 °F 29.9 °F 37.3 °F
Dew Point: 47.1 °F 26.4 °F 33.9 °F
Humidity: 94% 74% 88%
Wind Speed: 9.0mph 0.0mph 3.4mph
Wind Gust: 18.0mph - -
Wind- - West
Pressure: 29.77 in 29.00 in -
Precipitation: 0.25 in    
Historical Graphs
 
 
Tabular Data for November 19, 2017
Time Temperature Dew Point Pressure Wind Wind Speed Wind Gust Humidity Rainfall Rate (Hourly) solar
00:00 44.0 °F 42.4 °F 29.11 in Calm     94% 0.00 in 0 W/m2
00:06 44.4 °F 42.5 °F 29.11 in SSE 1.0 mph 2.0 mph 93% 0.00 in 0 W/m2
00:12 45.0 °F 43.4 °F 29.10 in SE 1.0 mph 3.0 mph 94% 0.00 in 0 W/m2
00:18 46.1 °F 44.5 °F 29.10 in SSE 2.0 mph 3.0 mph 94% 0.00 in 0 W/m2
00:24 46.8 °F 45.2 °F 29.11 in South 3.0 mph 4.0 mph 94% 0.00 in 0 W/m2
00:30 47.2 °F 45.3 °F 29.11 in SSE 3.0 mph 3.0 mph 93% 0.00 in 0 W/m2
00:36 47.6 °F 45.4 °F 29.10 in SE 3.0 mph 5.0 mph 92% 0.00 in 0 W/m2
00:42 47.7 °F 44.9 °F 29.09 in SSE 4.0 mph 5.0 mph 90% 0.00 in 0 W/m2
00:48 48.0 °F 44.9 °F 29.08 in SSE 5.0 mph 6.0 mph 89% 0.00 in 0 W/m2
00:54 48.2 °F 44.8 °F 29.07 in SE 4.0 mph 7.0 mph 88% 0.00 in 0 W/m2
01:00 48.5 °F 44.8 °F 29.06 in SE 5.0 mph 7.0 mph 87% 0.00 in 0 W/m2
01:12 49.2 °F 44.9 °F 29.06 in SSE 6.0 mph 6.0 mph 85% 0.00 in 0 W/m2
01:18 49.4 °F 44.8 °F 29.07 in South 6.0 mph 8.0 mph 84% 0.00 in 0 W/m2
01:24 49.4 °F 44.8 °F 29.07 in SE 5.0 mph 7.0 mph 84% 0.00 in 0 W/m2
01:30 49.3 °F 44.7 °F 29.05 in SSE 3.0 mph 3.0 mph 84% 0.00 in 0 W/m2
01:36 48.9 °F 44.6 °F 29.05 in SSE 1.0 mph 3.0 mph 85% 0.13 in 0 W/m2
01:42 49.0 °F 45.0 °F 29.05 in South 2.0 mph 7.0 mph 86% 0.07 in 0 W/m2
01:48 49.0 °F 45.0 °F 29.05 in SSE 4.0 mph 7.0 mph 86% 0.04 in 0 W/m2
02:00 49.1 °F 45.1 °F 29.04 in SSW 3.0 mph 3.0 mph 86% 0.00 in 0 W/m2
02:06 49.3 °F 45.3 °F 29.04 in SSE 3.0 mph 4.0 mph 86% 0.00 in 0 W/m2
02:12 49.4 °F 45.4 °F 29.03 in South 2.0 mph 3.0 mph 86% 0.00 in 0 W/m2
02:18 49.2 °F 45.2 °F 29.03 in South 1.0 mph 3.0 mph 86% 0.00 in 0 W/m2
02:30 47.9 °F 44.5 °F 29.03 in South 1.0 mph 2.0 mph 88% 0.00 in 0 W/m2
02:36 47.8 °F 44.7 °F 29.02 in South 1.0 mph 2.0 mph 89% 0.00 in 0 W/m2
02:42 48.0 °F 45.2 °F 29.02 in South 1.0 mph 4.0 mph 90% 0.00 in 0 W/m2
02:48 48.6 °F 45.8 °F 29.02 in SSE 2.0 mph 8.0 mph 90% 0.15 in 0 W/m2
03:00 48.9 °F 45.8 °F 29.01 in South 3.0 mph 3.0 mph 89% 0.05 in 0 W/m2
03:06 48.9 °F 45.8 °F 29.01 in SSW 3.0 mph 7.0 mph 89% 0.05 in 0 W/m2
03:12 48.9 °F 46.1 °F 29.00 in South 3.0 mph 3.0 mph 90% 0.05 in 0 W/m2
03:18 48.9 °F 46.1 °F 29.00 in South 3.0 mph 3.0 mph 90% 0.00 in 0 W/m2
03:24 48.9 °F 46.1 °F 29.00 in South 2.0 mph 3.0 mph 90% 0.00 in 0 W/m2
03:30 48.9 °F 46.1 °F 29.00 in South 2.0 mph 2.0 mph 90% 0.10 in 0 W/m2
03:48 49.1 °F 46.3 °F 29.00 in SSW 3.0 mph 4.0 mph 90% 0.11 in 0 W/m2
03:54 49.2 °F 46.4 °F 29.00 in South 3.0 mph 7.0 mph 90% 0.11 in 0 W/m2
04:06 49.3 °F 46.5 °F 29.00 in SW 2.0 mph 5.0 mph 90% 0.00 in 0 W/m2
04:12 49.4 °F 46.6 °F 29.01 in SSW 2.0 mph 5.0 mph 90% 0.00 in 0 W/m2
04:18 49.9 °F 47.1 °F 29.01 in WSW 4.0 mph 7.0 mph 90% 0.00 in 0 W/m2
04:24 50.2 °F 47.1 °F 29.02 in West 7.0 mph 10.0 mph 89% 0.00 in 0 W/m2
04:30 49.9 °F 46.5 °F 29.02 in WNW 6.0 mph 6.0 mph 88% 0.00 in 0 W/m2
04:54 46.7 °F 43.0 °F 29.06 in West 9.0 mph 18.0 mph 87% 0.00 in 0 W/m2
05:18 41.0 °F 38.0 °F 29.11 in SW 7.0 mph 10.0 mph 89% 0.00 in 0 W/m2
05:24 40.1 °F 37.1 °F 29.13 in NNW 7.0 mph 12.0 mph 89% 0.00 in 0 W/m2
05:30 39.3 °F 36.3 °F 29.14 in WNW 9.0 mph 11.0 mph 89% 0.00 in 0 W/m2
05:36 38.9 °F 35.9 °F 29.15 in WNW 9.0 mph 11.0 mph 89% 0.07 in 0 W/m2
05:42 38.5 °F 35.5 °F 29.16 in WNW 8.0 mph 10.0 mph 89% 0.07 in 0 W/m2
06:00 37.9 °F 35.2 °F 29.19 in WNW 7.0 mph 7.0 mph 90% 0.00 in 0 W/m2
06:06 37.7 °F 35.0 °F 29.20 in WSW 6.0 mph 7.0 mph 90% 0.00 in 0 W/m2
06:12 37.5 °F 34.8 °F 29.21 in NNW 7.0 mph 7.0 mph 90% 0.00 in 0 W/m2
06:18 37.2 °F 34.5 °F 29.22 in WNW 7.0 mph 7.0 mph 90% 0.00 in 0 W/m2
06:24 37.0 °F 34.1 °F 29.24 in West 7.0 mph 8.0 mph 89% 0.00 in 0 W/m2
06:30 36.6 °F 33.9 °F 29.24 in NW 7.0 mph 7.0 mph 90% 0.00 in 0 W/m2
06:36 36.4 °F 33.7 °F 29.25 in West 7.0 mph 9.0 mph 90% 0.00 in 0 W/m2
06:42 36.2 °F 33.5 °F 29.27 in NW 7.0 mph 7.0 mph 90% 0.04 in 0 W/m2
07:00 35.2 °F 32.6 °F 29.29 in West 6.0 mph 6.0 mph 90% 0.00 in 0 W/m2
07:06 35.1 °F 32.5 °F 29.30 in WNW 6.0 mph 8.0 mph 90% 0.00 in 0 W/m2
07:18 34.8 °F 32.4 °F 29.31 in WNW 5.0 mph 13.0 mph 91% 0.00 in 5 W/m2
07:24 34.7 °F 32.3 °F 29.32 in WNW 6.0 mph 9.0 mph 91% 0.00 in 7 W/m2
07:30 34.6 °F 32.2 °F 29.33 in WNW 6.0 mph 6.0 mph 91% 0.00 in 11 W/m2
07:36 34.5 °F 31.9 °F 29.33 in WNW 6.0 mph 7.0 mph 90% 0.00 in 9 W/m2
07:42 34.4 °F 31.8 °F 29.34 in West 6.0 mph 6.0 mph 90% 0.00 in 14 W/m2
07:54 34.0 °F 31.4 °F 29.36 in West 7.0 mph 10.0 mph 90% 0.00 in 12 W/m2
08:06 33.5 °F 30.9 °F 29.38 in NW 6.0 mph 10.0 mph 90% 0.00 in 30 W/m2
08:12 33.5 °F 31.2 °F 29.38 in NNW 6.0 mph 6.0 mph 91% 0.00 in 26 W/m2
08:18 33.6 °F 31.3 °F 29.39 in WNW 6.0 mph 16.0 mph 91% 0.00 in 19 W/m2
08:24 33.7 °F 31.4 °F 29.39 in WNW 6.0 mph 7.0 mph 91% 0.00 in 16 W/m2
08:36 33.6 °F 31.3 °F 29.41 in West 6.0 mph 9.0 mph 91% 0.00 in 14 W/m2
08:42 33.7 °F 31.4 °F 29.42 in NW 6.0 mph 6.0 mph 91% 0.00 in 18 W/m2
08:48 33.6 °F 31.3 °F 29.42 in West 5.0 mph 6.0 mph 91% 0.00 in 32 W/m2
08:54 33.5 °F 31.2 °F 29.42 in WNW 6.0 mph 9.0 mph 91% 0.00 in 30 W/m2
09:00 33.3 °F 30.7 °F 29.42 in West 6.0 mph 7.0 mph 90% 0.00 in 35 W/m2
09:06 33.3 °F 30.7 °F 29.43 in WNW 5.0 mph 7.0 mph 90% 0.00 in 32 W/m2
09:12 33.2 °F 30.9 °F 29.44 in NW 5.0 mph 5.0 mph 91% 0.00 in 23 W/m2
09:32 32.6 °F 30.3 °F 29.46 in NW 2.0 mph 3.0 mph 91% 0.00 in 18 W/m2
09:38 32.6 °F 30.3 °F 29.47 in NW 1.0 mph 3.0 mph 91% 0.00 in 19 W/m2
09:44 32.7 °F 30.4 °F 29.47 in NW 1.0 mph 1.0 mph 91% 0.00 in 21 W/m2
09:50 32.8 °F 30.5 °F 29.48 in NW 1.0 mph 1.0 mph 91% 0.00 in 21 W/m2
09:56 32.9 °F 30.8 °F 29.48 in WNW 2.0 mph 8.0 mph 92% 0.00 in 23 W/m2
10:02 33.0 °F 30.9 °F 29.49 in NNW 3.0 mph 3.0 mph 92% 0.00 in 21 W/m2
10:08 32.8 °F 30.5 °F 29.49 in WNW 2.0 mph 7.0 mph 91% 0.00 in 21 W/m2
10:14 32.7 °F 30.4 °F 29.50 in WNW 2.0 mph 2.0 mph 91% 0.00 in 28 W/m2
10:20 32.7 °F 30.4 °F 29.50 in WNW 2.0 mph 3.0 mph 91% 0.00 in 30 W/m2
10:26 32.7 °F 30.6 °F 29.50 in WNW 2.0 mph 4.0 mph 92% 0.00 in 39 W/m2
10:32 32.8 °F 30.7 °F 29.51 in WNW 1.0 mph 1.0 mph 92% 0.00 in 30 W/m2
10:38 32.8 °F 30.7 °F 29.51 in WNW 1.0 mph 2.0 mph 92% 0.00 in 33 W/m2
10:44 32.8 °F 30.7 °F 29.51 in WNW 2.0 mph 5.0 mph 92% 0.00 in 42 W/m2
10:56 32.8 °F 30.7 °F 29.51 in West 2.0 mph 3.0 mph 92% 0.00 in 35 W/m2
11:02 32.9 °F 30.8 °F 29.52 in WNW 2.0 mph 2.0 mph 92% 0.00 in 47 W/m2
11:08 33.0 °F 30.9 °F 29.52 in NW 2.0 mph 2.0 mph 92% 0.00 in 44 W/m2
11:14 33.1 °F 31.0 °F 29.52 in WNW 2.0 mph 5.0 mph 92% 0.00 in 37 W/m2
11:32 33.8 °F 31.7 °F 29.52 in WNW 2.0 mph 3.0 mph 92% 0.00 in 39 W/m2
11:44 34.2 °F 31.8 °F 29.53 in NNW 2.0 mph 2.0 mph 91% 0.00 in 39 W/m2
11:50 34.2 °F 31.8 °F 29.53 in WNW 1.0 mph 1.0 mph 91% 0.00 in 47 W/m2
12:02 34.3 °F 31.7 °F 29.53 in WNW 3.0 mph 4.0 mph 90% 0.00 in 37 W/m2
12:08 34.5 °F 31.6 °F 29.53 in WNW 4.0 mph 5.0 mph 89% 0.00 in 49 W/m2
12:14 34.6 °F 31.7 °F 29.53 in NW 4.0 mph 5.0 mph 89% 0.00 in 40 W/m2
12:20 34.8 °F 31.6 °F 29.53 in WNW 4.0 mph 4.0 mph 88% 0.00 in 40 W/m2
12:26 34.9 °F 31.7 °F 29.53 in North 3.0 mph 6.0 mph 88% 0.00 in 42 W/m2
12:32 34.9 °F 31.4 °F 29.53 in WNW 3.0 mph 5.0 mph 87% 0.00 in 49 W/m2
12:38 35.1 °F 31.3 °F 29.53 in WNW 5.0 mph 8.0 mph 86% 0.00 in 63 W/m2
12:44 35.3 °F 31.5 °F 29.53 in NNW 4.0 mph 5.0 mph 86% 0.00 in 146 W/m2
12:50 35.6 °F 31.8 °F 29.53 in WNW 4.0 mph 5.0 mph 86% 0.00 in 125 W/m2
12:56 35.9 °F 31.8 °F 29.53 in WNW 4.0 mph 6.0 mph 85% 0.00 in 139 W/m2
13:02 36.1 °F 31.7 °F 29.53 in WNW 4.0 mph 5.0 mph 84% 0.00 in 111 W/m2
13:08 36.2 °F 31.5 °F 29.53 in WNW 4.0 mph 9.0 mph 83% 0.00 in 128 W/m2
13:14 36.5 °F 31.8 °F 29.54 in West 3.0 mph 4.0 mph 83% 0.00 in 127 W/m2
13:20 36.7 °F 31.7 °F 29.54 in WNW 3.0 mph 3.0 mph 82% 0.00 in 114 W/m2
13:26 36.8 °F 32.1 °F 29.54 in WNW 4.0 mph 5.0 mph 83% 0.00 in 105 W/m2
13:38 36.2 °F 31.8 °F 29.55 in WNW 4.0 mph 6.0 mph 84% 0.00 in 144 W/m2
13:44 36.4 °F 31.7 °F 29.55 in NW 5.0 mph 5.0 mph 83% 0.00 in 127 W/m2
13:50 36.8 °F 30.9 °F 29.56 in WNW 5.0 mph 5.0 mph 79% 0.00 in 102 W/m2
13:56 37.1 °F 30.2 °F 29.56 in WNW 5.0 mph 5.0 mph 76% 0.00 in 93 W/m2
14:02 37.3 °F 30.1 °F 29.56 in West 4.0 mph 4.0 mph 75% 0.00 in 81 W/m2
14:08 37.2 °F 29.7 °F 29.56 in WNW 5.0 mph 7.0 mph 74% 0.00 in 65 W/m2
14:20 37.2 °F 30.0 °F 29.56 in WNW 4.0 mph 4.0 mph 75% 0.00 in 56 W/m2
14:26 37.3 °F 29.8 °F 29.56 in NW 3.0 mph 8.0 mph 74% 0.00 in 42 W/m2
14:32 37.2 °F 29.7 °F 29.56 in NW 4.0 mph 4.0 mph 74% 0.00 in 44 W/m2
14:38 37.1 °F 29.9 °F 29.57 in WNW 4.0 mph 4.0 mph 75% 0.00 in 33 W/m2
14:44 37.0 °F 29.8 °F 29.57 in SW 3.0 mph 6.0 mph 75% 0.00 in 44 W/m2
14:50 36.5 °F 30.6 °F 29.58 in WSW 4.0 mph 6.0 mph 79% 0.00 in 40 W/m2
14:56 35.5 °F 30.8 °F 29.58 in WSW 5.0 mph 7.0 mph 83% 0.00 in 58 W/m2
15:02 34.9 °F 30.8 °F 29.58 in West 5.0 mph 5.0 mph 85% 0.00 in 40 W/m2
15:08 34.6 °F 31.1 °F 29.59 in SW 4.0 mph 10.0 mph 87% 0.00 in 19 W/m2
15:20 34.1 °F 30.9 °F 29.59 in WNW 4.0 mph 9.0 mph 88% 0.00 in 67 W/m2
15:26 34.3 °F 31.4 °F 29.60 in NW 4.0 mph 9.0 mph 89% 0.00 in 42 W/m2
15:32 34.5 °F 31.6 °F 29.60 in WNW 3.0 mph 4.0 mph 89% 0.00 in 35 W/m2
15:38 34.5 °F 31.6 °F 29.60 in WNW 3.0 mph 4.0 mph 89% 0.00 in 21 W/m2
15:50 34.6 °F 31.7 °F 29.61 in WSW 1.0 mph 1.0 mph 89% 0.00 in 9 W/m2
15:56 34.7 °F 31.8 °F 29.61 in Calm   2.0 mph 89% 0.00 in 7 W/m2
16:08 34.8 °F 31.6 °F 29.61 in WSW 1.0 mph 4.0 mph 88% 0.00 in 7 W/m2
16:14 34.9 °F 31.7 °F 29.61 in WSW 1.0 mph 2.0 mph 88% 0.00 in 0 W/m2
16:20 35.0 °F 31.8 °F 29.61 in WSW 1.0 mph 1.0 mph 88% 0.00 in 0 W/m2
16:26 35.1 °F 31.9 °F 29.61 in WSW 1.0 mph 2.0 mph 88% 0.00 in 0 W/m2
16:32 35.2 °F 31.7 °F 29.61 in WNW 1.0 mph 2.0 mph 87% 0.00 in 0 W/m2
16:38 35.3 °F 31.5 °F 29.61 in WNW 1.0 mph 2.0 mph 86% 0.00 in 0 W/m2
16:56 35.9 °F 30.3 °F 29.62 in WNW 5.0 mph 11.0 mph 80% 0.00 in 0 W/m2
17:02 35.8 °F 30.2 °F 29.62 in West 4.0 mph 5.0 mph 80% 0.00 in 0 W/m2
17:14 35.3 °F 30.1 °F 29.62 in WNW 4.0 mph 6.0 mph 81% 0.00 in 0 W/m2
17:20 35.2 °F 30.0 °F 29.63 in WNW 3.0 mph 3.0 mph 81% 0.00 in 0 W/m2
17:32 35.2 °F 29.0 °F 29.63 in WNW 3.0 mph 7.0 mph 78% 0.00 in 0 W/m2
17:58 35.5 °F 28.7 °F 29.64 in WNW 2.0 mph 3.0 mph 76% 0.00 in 0 W/m2
18:04 35.6 °F 28.8 °F 29.64 in WNW 3.0 mph 4.0 mph 76% 0.00 in 0 W/m2
18:16 34.6 °F 29.4 °F 29.66 in WNW 3.0 mph 6.0 mph 81% 0.00 in 0 W/m2
18:22 34.1 °F 29.8 °F 29.66 in WNW 3.0 mph 4.0 mph 84% 0.00 in 0 W/m2
18:46 33.7 °F 30.2 °F 29.66 in West 1.0 mph 2.0 mph 87% 0.00 in 0 W/m2
18:52 33.8 °F 30.3 °F 29.66 in West 1.0 mph 2.0 mph 87% 0.00 in 0 W/m2
18:58 33.9 °F 30.4 °F 29.66 in West 2.0 mph 4.0 mph 87% 0.00 in 0 W/m2
19:04 33.8 °F 30.6 °F 29.66 in SW 2.0 mph 6.0 mph 88% 0.00 in 0 W/m2
19:10 33.5 °F 30.3 °F 29.66 in West 3.0 mph 4.0 mph 88% 0.00 in 0 W/m2
19:16 33.2 °F 30.0 °F 29.66 in West 3.0 mph 5.0 mph 88% 0.00 in 0 W/m2
19:22 32.9 °F 30.0 °F 29.67 in WSW 3.0 mph 3.0 mph 89% 0.00 in 0 W/m2
19:28 32.7 °F 30.1 °F 29.67 in West 2.0 mph 3.0 mph 90% 0.00 in 0 W/m2
19:36 32.5 °F 29.9 °F 29.67 in West 1.0 mph 2.0 mph 90% 0.00 in 0 W/m2
19:48 32.4 °F 30.1 °F 29.67 in WNW 2.0 mph 2.0 mph 91% 0.00 in 0 W/m2
20:00 32.3 °F 30.0 °F 29.68 in West 2.0 mph 2.0 mph 91% 0.00 in 0 W/m2
20:12 32.2 °F 29.9 °F 29.68 in WSW 2.0 mph 4.0 mph 91% 0.00 in 0 W/m2
20:18 32.1 °F 30.0 °F 29.69 in West 2.0 mph 5.0 mph 92% 0.00 in 0 W/m2
20:24 32.1 °F 30.0 °F 29.69 in West 2.0 mph 2.0 mph 92% 0.00 in 0 W/m2
20:30 32.1 °F 30.0 °F 29.69 in West 1.0 mph 3.0 mph 92% 0.00 in 0 W/m2
20:42 32.0 °F 29.9 °F 29.69 in WSW 2.0 mph 2.0 mph 92% 0.00 in 0 W/m2
21:00 31.8 °F 29.7 °F 29.69 in WNW 2.0 mph 2.0 mph 92% 0.00 in 0 W/m2
21:06 31.8 °F 29.7 °F 29.70 in West 1.0 mph 2.0 mph 92% 0.00 in 0 W/m2
21:18 31.9 °F 29.8 °F 29.71 in West 1.0 mph 4.0 mph 92% 0.00 in 0 W/m2
21:30 31.9 °F 29.8 °F 29.72 in WNW 2.0 mph 3.0 mph 92% 0.00 in 0 W/m2
21:36 31.9 °F 29.8 °F 29.72 in WSW 2.0 mph 3.0 mph 92% 0.00 in 0 W/m2
21:42 31.9 °F 29.8 °F 29.72 in West 2.0 mph 4.0 mph 92% 0.00 in 0 W/m2
21:48 31.9 °F 29.8 °F 29.72 in West 2.0 mph 4.0 mph 92% 0.00 in 0 W/m2
21:54 31.8 °F 29.5 °F 29.72 in WNW 2.0 mph 3.0 mph 91% 0.00 in 0 W/m2
22:00 31.7 °F 28.8 °F 29.72 in West 3.0 mph 3.0 mph 89% 0.00 in 0 W/m2
22:06 31.6 °F 28.2 °F 29.72 in WSW 3.0 mph 3.0 mph 87% 0.00 in 0 W/m2
22:12 31.5 °F 28.1 °F 29.72 in West 2.0 mph 2.0 mph 87% 0.00 in 0 W/m2
22:18 31.3 °F 27.6 °F 29.72 in SW 2.0 mph 5.0 mph 86% 0.00 in 0 W/m2
22:30 31.1 °F 27.1 °F 29.73 in West 3.0 mph 3.0 mph 85% 0.00 in 0 W/m2
22:42 30.8 °F 26.8 °F 29.74 in West 3.0 mph 3.0 mph 85% 0.00 in 0 W/m2
22:48 30.7 °F 26.7 °F 29.74 in West 3.0 mph 9.0 mph 85% 0.00 in 0 W/m2
22:54 30.6 °F 26.6 °F 29.74 in WNW 4.0 mph 4.0 mph 85% 0.00 in 0 W/m2
23:06 30.1 °F 26.4 °F 29.75 in WNW 3.0 mph 3.0 mph 86% 0.00 in 0 W/m2
23:12 30.1 °F 26.7 °F 29.75 in West 2.0 mph 3.0 mph 87% 0.00 in 0 W/m2
23:24 30.1 °F 26.7 °F 29.75 in West 2.0 mph 3.0 mph 87% 0.00 in 0 W/m2
23:30 30.1 °F 26.7 °F 29.76 in West 2.0 mph 4.0 mph 87% 0.00 in 0 W/m2
23:36 30.1 °F 26.7 °F 29.76 in West 2.0 mph 4.0 mph 87% 0.00 in 0 W/m2
23:42 30.1 °F 26.7 °F 29.77 in WSW 2.0 mph 3.0 mph 87% 0.00 in 0 W/m2
23:48 30.0 °F 26.6 °F 29.77 in WSW 2.0 mph 4.0 mph 87% 0.00 in 0 W/m2
23:54 29.9 °F 26.5 °F 29.77 in WSW 3.0 mph 5.0 mph 87% 0.00 in 0 W/m2
Country Meadow, Clay, NY, USA
Compliments of Weather Underground - 2 mb